sensor_id;sensor_type;location;lat;lon;timestamp;P1;durP1;ratioP1;P2;durP2;ratioP2
44110;SDS011;29774;52.664;5.074;2023-05-10T00:00:23;8.77;;;6.40;;
44110;SDS011;29774;52.664;5.074;2023-05-10T00:02:49;7.38;;;6.32;;
44110;SDS011;29774;52.664;5.074;2023-05-10T00:05:14;8.25;;;7.35;;
44110;SDS011;29774;52.664;5.074;2023-05-10T00:07:40;7.38;;;6.68;;
44110;SDS011;29774;52.664;5.074;2023-05-10T00:10:09;7.50;;;6.45;;
44110;SDS011;29774;52.664;5.074;2023-05-10T00:12:35;6.80;;;6.10;;
44110;SDS011;29774;52.664;5.074;2023-05-10T00:15:01;7.00;;;6.25;;
44110;SDS011;29774;52.664;5.074;2023-05-10T00:17:27;9.80;;;6.53;;
44110;SDS011;29774;52.664;5.074;2023-05-10T00:19:53;8.13;;;6.35;;
44110;SDS011;29774;52.664;5.074;2023-05-10T00:22:19;8.45;;;6.65;;
44110;SDS011;29774;52.664;5.074;2023-05-10T00:24:45;8.95;;;6.28;;
44110;SDS011;29774;52.664;5.074;2023-05-10T00:27:11;9.52;;;6.30;;
44110;SDS011;29774;52.664;5.074;2023-05-10T00:29:36;6.88;;;5.75;;
44110;SDS011;29774;52.664;5.074;2023-05-10T00:32:02;6.55;;;5.75;;
44110;SDS011;29774;52.664;5.074;2023-05-10T00:34:28;9.45;;;5.75;;
44110;SDS011;29774;52.664;5.074;2023-05-10T00:36:53;7.28;;;6.47;;
44110;SDS011;29774;52.664;5.074;2023-05-10T00:39:19;6.25;;;5.35;;
44110;SDS011;29774;52.664;5.074;2023-05-10T00:41:45;7.38;;;5.88;;
44110;SDS011;29774;52.664;5.074;2023-05-10T00:44:10;7.03;;;5.55;;
44110;SDS011;29774;52.664;5.074;2023-05-10T00:46:36;6.68;;;5.57;;
44110;SDS011;29774;52.664;5.074;2023-05-10T00:49:02;7.63;;;5.22;;
44110;SDS011;29774;52.664;5.074;2023-05-10T00:51:28;5.50;;;4.57;;
44110;SDS011;29774;52.664;5.074;2023-05-10T00:53:53;6.93;;;4.60;;
44110;SDS011;29774;52.664;5.074;2023-05-10T00:56:20;5.15;;;4.25;;
44110;SDS011;29774;52.664;5.074;2023-05-10T00:58:48;6.28;;;4.53;;
44110;SDS011;29774;52.664;5.074;2023-05-10T01:01:14;5.00;;;4.50;;
44110;SDS011;29774;52.664;5.074;2023-05-10T01:03:39;6.10;;;4.72;;
44110;SDS011;29774;52.664;5.074;2023-05-10T01:06:05;4.63;;;4.05;;
44110;SDS011;29774;52.664;5.074;2023-05-10T01:08:31;5.15;;;3.80;;
44110;SDS011;29774;52.664;5.074;2023-05-10T01:10:57;6.45;;;4.40;;
44110;SDS011;29774;52.664;5.074;2023-05-10T01:13:28;5.28;;;3.95;;
44110;SDS011;29774;52.664;5.074;2023-05-10T01:16:01;5.97;;;4.15;;
44110;SDS011;29774;52.664;5.074;2023-05-10T01:18:28;6.07;;;4.18;;
44110;SDS011;29774;52.664;5.074;2023-05-10T01:26:26;4.40;;;3.83;;
44110;SDS011;29774;52.664;5.074;2023-05-10T01:32:11;5.60;;;3.90;;
44110;SDS011;29774;52.664;5.074;2023-05-10T01:37:37;6.35;;;4.72;;
44110;SDS011;29774;52.664;5.074;2023-05-10T01:42:50;4.65;;;4.10;;
44110;SDS011;29774;52.664;5.074;2023-05-10T01:48:07;6.30;;;4.50;;
44110;SDS011;29774;52.664;5.074;2023-05-10T01:50:35;5.07;;;4.25;;
44110;SDS011;29774;52.664;5.074;2023-05-10T01:53:08;5.93;;;4.35;;
44110;SDS011;29774;52.664;5.074;2023-05-10T01:55:39;6.40;;;5.07;;
44110;SDS011;29774;52.664;5.074;2023-05-10T01:58:12;8.63;;;4.60;;
44110;SDS011;29774;52.664;5.074;2023-05-10T02:00:46;8.50;;;5.43;;
44110;SDS011;29774;52.664;5.074;2023-05-10T02:03:13;7.55;;;5.97;;
44110;SDS011;29774;52.664;5.074;2023-05-10T02:05:41;6.40;;;5.43;;
44110;SDS011;29774;52.664;5.074;2023-05-10T02:08:10;6.43;;;4.95;;
44110;SDS011;29774;52.664;5.074;2023-05-10T02:10:36;7.57;;;6.05;;
44110;SDS011;29774;52.664;5.074;2023-05-10T02:13:04;7.85;;;5.95;;
44110;SDS011;29774;52.664;5.074;2023-05-10T02:15:32;8.43;;;6.03;;
44110;SDS011;29774;52.664;5.074;2023-05-10T02:17:58;9.48;;;6.75;;
44110;SDS011;29774;52.664;5.074;2023-05-10T02:20:25;8.50;;;5.75;;
44110;SDS011;29774;52.664;5.074;2023-05-10T02:22:52;8.50;;;6.25;;
44110;SDS011;29774;52.664;5.074;2023-05-10T02:25:19;7.15;;;6.20;;
44110;SDS011;29774;52.664;5.074;2023-05-10T02:27:46;8.30;;;6.00;;
44110;SDS011;29774;52.664;5.074;2023-05-10T02:30:13;10.38;;;6.75;;
44110;SDS011;29774;52.664;5.074;2023-05-10T02:32:39;9.15;;;6.60;;
44110;SDS011;29774;52.664;5.074;2023-05-10T02:35:06;7.97;;;6.00;;
44110;SDS011;29774;52.664;5.074;2023-05-10T02:37:33;10.88;;;6.18;;
44110;SDS011;29774;52.664;5.074;2023-05-10T02:40:00;8.27;;;6.05;;
44110;SDS011;29774;52.664;5.074;2023-05-10T02:42:28;10.40;;;6.43;;
44110;SDS011;29774;52.664;5.074;2023-05-10T02:45:07;10.38;;;6.15;;
44110;SDS011;29774;52.664;5.074;2023-05-10T02:47:37;11.30;;;7.93;;
44110;SDS011;29774;52.664;5.074;2023-05-10T02:50:03;9.27;;;6.70;;
44110;SDS011;29774;52.664;5.074;2023-05-10T02:52:30;11.93;;;7.10;;
44110;SDS011;29774;52.664;5.074;2023-05-10T02:55:05;12.27;;;7.10;;
44110;SDS011;29774;52.664;5.074;2023-05-10T02:57:33;11.52;;;6.97;;
44110;SDS011;29774;52.664;5.074;2023-05-10T02:59:59;10.25;;;6.55;;
44110;SDS011;29774;52.664;5.074;2023-05-10T03:02:26;12.05;;;7.22;;
44110;SDS011;29774;52.664;5.074;2023-05-10T03:04:53;12.48;;;8.20;;
44110;SDS011;29774;52.664;5.074;2023-05-10T03:07:18;11.32;;;7.60;;
44110;SDS011;29774;52.664;5.074;2023-05-10T03:09:46;12.18;;;7.60;;
44110;SDS011;29774;52.664;5.074;2023-05-10T03:12:33;13.30;;;7.70;;
44110;SDS011;29774;52.664;5.074;2023-05-10T03:20:56;11.65;;;7.53;;
44110;SDS011;29774;52.664;5.074;2023-05-10T03:23:30;11.30;;;7.38;;
44110;SDS011;29774;52.664;5.074;2023-05-10T03:26:05;10.07;;;6.20;;
44110;SDS011;29774;52.664;5.074;2023-05-10T03:28:32;10.25;;;5.95;;
44110;SDS011;29774;52.664;5.074;2023-05-10T03:30:59;9.93;;;5.47;;
44110;SDS011;29774;52.664;5.074;2023-05-10T03:33:25;8.02;;;5.22;;
44110;SDS011;29774;52.664;5.074;2023-05-10T03:35:51;5.10;;;3.85;;
44110;SDS011;29774;52.664;5.074;2023-05-10T03:38:16;6.43;;;4.32;;
44110;SDS011;29774;52.664;5.074;2023-05-10T03:40:42;9.93;;;4.45;;
44110;SDS011;29774;52.664;5.074;2023-05-10T03:43:07;7.45;;;4.40;;
44110;SDS011;29774;52.664;5.074;2023-05-10T03:45:33;7.15;;;4.43;;
44110;SDS011;29774;52.664;5.074;2023-05-10T03:47:59;6.82;;;4.82;;
44110;SDS011;29774;52.664;5.074;2023-05-10T03:50:25;6.93;;;4.38;;
44110;SDS011;29774;52.664;5.074;2023-05-10T03:52:51;5.15;;;3.53;;
44110;SDS011;29774;52.664;5.074;2023-05-10T03:55:16;7.05;;;4.20;;
44110;SDS011;29774;52.664;5.074;2023-05-10T03:57:42;9.18;;;4.55;;
44110;SDS011;29774;52.664;5.074;2023-05-10T04:00:08;7.28;;;4.53;;
44110;SDS011;29774;52.664;5.074;2023-05-10T04:02:34;7.22;;;4.47;;
44110;SDS011;29774;52.664;5.074;2023-05-10T04:05:00;6.78;;;4.80;;
44110;SDS011;29774;52.664;5.074;2023-05-10T04:07:26;8.45;;;5.18;;
44110;SDS011;29774;52.664;5.074;2023-05-10T04:09:51;5.63;;;3.55;;
44110;SDS011;29774;52.664;5.074;2023-05-10T04:12:17;7.18;;;3.97;;
44110;SDS011;29774;52.664;5.074;2023-05-10T04:14:43;7.15;;;4.30;;
44110;SDS011;29774;52.664;5.074;2023-05-10T04:17:08;5.95;;;4.25;;
44110;SDS011;29774;52.664;5.074;2023-05-10T04:19:34;6.70;;;3.67;;
44110;SDS011;29774;52.664;5.074;2023-05-10T04:22:00;6.93;;;4.53;;
44110;SDS011;29774;52.664;5.074;2023-05-10T04:24:27;7.07;;;4.13;;
44110;SDS011;29774;52.664;5.074;2023-05-10T04:26:53;5.45;;;4.28;;
44110;SDS011;29774;52.664;5.074;2023-05-10T04:29:19;6.93;;;4.55;;
44110;SDS011;29774;52.664;5.074;2023-05-10T04:31:45;5.88;;;4.05;;
44110;SDS011;29774;52.664;5.074;2023-05-10T04:34:11;5.68;;;4.38;;
44110;SDS011;29774;52.664;5.074;2023-05-10T04:36:36;7.90;;;5.00;;
44110;SDS011;29774;52.664;5.074;2023-05-10T04:39:02;6.93;;;4.47;;
44110;SDS011;29774;52.664;5.074;2023-05-10T04:41:29;6.68;;;4.63;;
44110;SDS011;29774;52.664;5.074;2023-05-10T04:43:55;6.43;;;4.30;;
44110;SDS011;29774;52.664;5.074;2023-05-10T04:46:20;7.03;;;4.72;;
44110;SDS011;29774;52.664;5.074;2023-05-10T04:48:46;7.53;;;4.68;;
44110;SDS011;29774;52.664;5.074;2023-05-10T04:51:12;5.70;;;4.13;;
44110;SDS011;29774;52.664;5.074;2023-05-10T04:53:38;7.78;;;5.30;;
44110;SDS011;29774;52.664;5.074;2023-05-10T04:56:03;7.03;;;4.55;;
44110;SDS011;29774;52.664;5.074;2023-05-10T04:58:29;7.25;;;5.25;;
44110;SDS011;29774;52.664;5.074;2023-05-10T05:00:55;5.78;;;4.53;;
44110;SDS011;29774;52.664;5.074;2023-05-10T05:03:20;7.35;;;4.25;;
44110;SDS011;29774;52.664;5.074;2023-05-10T05:05:47;7.07;;;4.57;;
44110;SDS011;29774;52.664;5.074;2023-05-10T05:08:12;9.15;;;5.22;;
44110;SDS011;29774;52.664;5.074;2023-05-10T05:10:38;7.65;;;4.90;;
44110;SDS011;29774;52.664;5.074;2023-05-10T05:13:04;7.50;;;5.15;;
44110;SDS011;29774;52.664;5.074;2023-05-10T05:15:30;8.68;;;5.30;;
44110;SDS011;29774;52.664;5.074;2023-05-10T05:17:55;7.55;;;5.63;;
44110;SDS011;29774;52.664;5.074;2023-05-10T05:20:21;7.10;;;5.28;;
44110;SDS011;29774;52.664;5.074;2023-05-10T05:22:47;8.05;;;5.53;;
44110;SDS011;29774;52.664;5.074;2023-05-10T05:25:12;9.45;;;5.85;;
44110;SDS011;29774;52.664;5.074;2023-05-10T05:27:38;8.30;;;5.65;;
44110;SDS011;29774;52.664;5.074;2023-05-10T05:30:04;8.85;;;6.30;;
44110;SDS011;29774;52.664;5.074;2023-05-10T05:32:31;9.70;;;6.15;;
44110;SDS011;29774;52.664;5.074;2023-05-10T05:34:57;7.50;;;5.30;;
44110;SDS011;29774;52.664;5.074;2023-05-10T05:37:22;10.10;;;6.72;;
44110;SDS011;29774;52.664;5.074;2023-05-10T05:39:49;9.40;;;6.55;;
44110;SDS011;29774;52.664;5.074;2023-05-10T05:42:15;11.57;;;6.65;;
44110;SDS011;29774;52.664;5.074;2023-05-10T05:44:42;12.05;;;6.90;;
44110;SDS011;29774;52.664;5.074;2023-05-10T05:47:08;9.63;;;6.38;;
44110;SDS011;29774;52.664;5.074;2023-05-10T05:49:34;11.48;;;6.70;;
44110;SDS011;29774;52.664;5.074;2023-05-10T05:52:00;9.20;;;6.53;;
44110;SDS011;29774;52.664;5.074;2023-05-10T05:54:26;8.63;;;6.30;;
44110;SDS011;29774;52.664;5.074;2023-05-10T05:56:58;9.18;;;6.47;;
44110;SDS011;29774;52.664;5.074;2023-05-10T05:59:25;9.98;;;6.72;;
44110;SDS011;29774;52.664;5.074;2023-05-10T06:01:51;10.80;;;7.53;;
44110;SDS011;29774;52.664;5.074;2023-05-10T06:04:16;12.18;;;7.43;;
44110;SDS011;29774;52.664;5.074;2023-05-10T06:06:42;10.32;;;7.15;;
44110;SDS011;29774;52.664;5.074;2023-05-10T06:09:08;15.13;;;7.50;;
44110;SDS011;29774;52.664;5.074;2023-05-10T06:11:34;11.10;;;6.85;;
44110;SDS011;29774;52.664;5.074;2023-05-10T06:14:00;10.57;;;7.55;;
44110;SDS011;29774;52.664;5.074;2023-05-10T06:16:28;10.63;;;8.55;;
44110;SDS011;29774;52.664;5.074;2023-05-10T06:18:54;12.13;;;8.30;;
44110;SDS011;29774;52.664;5.074;2023-05-10T06:21:20;13.82;;;8.32;;
44110;SDS011;29774;52.664;5.074;2023-05-10T06:23:46;11.23;;;8.65;;
44110;SDS011;29774;52.664;5.074;2023-05-10T06:26:11;9.55;;;7.63;;
44110;SDS011;29774;52.664;5.074;2023-05-10T06:28:38;10.30;;;8.00;;
44110;SDS011;29774;52.664;5.074;2023-05-10T06:31:04;11.20;;;7.63;;
44110;SDS011;29774;52.664;5.074;2023-05-10T06:33:30;6.32;;;5.53;;
44110;SDS011;29774;52.664;5.074;2023-05-10T06:35:56;11.60;;;8.55;;
44110;SDS011;29774;52.664;5.074;2023-05-10T06:38:22;9.38;;;7.28;;
44110;SDS011;29774;52.664;5.074;2023-05-10T06:40:47;11.32;;;8.30;;
44110;SDS011;29774;52.664;5.074;2023-05-10T06:43:13;11.95;;;8.43;;
44110;SDS011;29774;52.664;5.074;2023-05-10T06:45:39;9.30;;;7.07;;
44110;SDS011;29774;52.664;5.074;2023-05-10T06:48:05;11.38;;;8.32;;
44110;SDS011;29774;52.664;5.074;2023-05-10T06:50:31;11.45;;;7.80;;
44110;SDS011;29774;52.664;5.074;2023-05-10T06:52:58;10.10;;;8.13;;
44110;SDS011;29774;52.664;5.074;2023-05-10T06:55:24;10.77;;;7.45;;
44110;SDS011;29774;52.664;5.074;2023-05-10T06:57:50;9.57;;;8.00;;
44110;SDS011;29774;52.664;5.074;2023-05-10T07:00:16;5.90;;;4.70;;
44110;SDS011;29774;52.664;5.074;2023-05-10T07:02:42;10.43;;;7.68;;
44110;SDS011;29774;52.664;5.074;2023-05-10T07:05:08;8.63;;;7.03;;
44110;SDS011;29774;52.664;5.074;2023-05-10T07:07:34;10.23;;;7.63;;
44110;SDS011;29774;52.664;5.074;2023-05-10T07:10:00;5.53;;;4.57;;
44110;SDS011;29774;52.664;5.074;2023-05-10T07:12:25;9.25;;;7.13;;
44110;SDS011;29774;52.664;5.074;2023-05-10T07:14:51;11.70;;;6.65;;
44110;SDS011;29774;52.664;5.074;2023-05-10T07:17:17;5.43;;;4.88;;
44110;SDS011;29774;52.664;5.074;2023-05-10T07:19:43;7.97;;;6.05;;
44110;SDS011;29774;52.664;5.074;2023-05-10T07:22:08;8.77;;;6.43;;
44110;SDS011;29774;52.664;5.074;2023-05-10T07:24:34;9.18;;;6.93;;
44110;SDS011;29774;52.664;5.074;2023-05-10T07:27:00;11.50;;;7.68;;
44110;SDS011;29774;52.664;5.074;2023-05-10T07:29:26;5.40;;;4.10;;
44110;SDS011;29774;52.664;5.074;2023-05-10T07:31:51;9.32;;;6.80;;
44110;SDS011;29774;52.664;5.074;2023-05-10T07:34:17;8.85;;;6.80;;
44110;SDS011;29774;52.664;5.074;2023-05-10T07:36:43;11.73;;;7.35;;
44110;SDS011;29774;52.664;5.074;2023-05-10T07:39:08;8.63;;;5.78;;
44110;SDS011;29774;52.664;5.074;2023-05-10T07:41:34;9.30;;;6.95;;
44110;SDS011;29774;52.664;5.074;2023-05-10T07:44:00;9.15;;;6.53;;
44110;SDS011;29774;52.664;5.074;2023-05-10T07:46:25;11.02;;;6.88;;
44110;SDS011;29774;52.664;5.074;2023-05-10T07:48:51;10.60;;;7.05;;
44110;SDS011;29774;52.664;5.074;2023-05-10T07:51:17;11.00;;;7.93;;
44110;SDS011;29774;52.664;5.074;2023-05-10T07:53:42;9.82;;;7.60;;
44110;SDS011;29774;52.664;5.074;2023-05-10T07:56:21;10.75;;;7.50;;
44110;SDS011;29774;52.664;5.074;2023-05-10T07:58:54;6.53;;;5.75;;
44110;SDS011;29774;52.664;5.074;2023-05-10T08:01:20;10.45;;;7.45;;
44110;SDS011;29774;52.664;5.074;2023-05-10T08:03:46;11.32;;;7.70;;
44110;SDS011;29774;52.664;5.074;2023-05-10T08:06:11;10.05;;;7.10;;
44110;SDS011;29774;52.664;5.074;2023-05-10T08:08:37;13.63;;;7.68;;
44110;SDS011;29774;52.664;5.074;2023-05-10T08:11:03;13.13;;;8.68;;
44110;SDS011;29774;52.664;5.074;2023-05-10T08:13:29;6.55;;;4.80;;
44110;SDS011;29774;52.664;5.074;2023-05-10T08:15:56;10.45;;;7.38;;
44110;SDS011;29774;52.664;5.074;2023-05-10T08:18:21;9.48;;;6.03;;
44110;SDS011;29774;52.664;5.074;2023-05-10T08:20:47;5.28;;;3.58;;
44110;SDS011;29774;52.664;5.074;2023-05-10T08:23:13;5.25;;;3.55;;
44110;SDS011;29774;52.664;5.074;2023-05-10T08:25:39;4.95;;;4.20;;
44110;SDS011;29774;52.664;5.074;2023-05-10T08:28:05;7.05;;;5.63;;
44110;SDS011;29774;52.664;5.074;2023-05-10T08:30:30;10.90;;;6.93;;
44110;SDS011;29774;52.664;5.074;2023-05-10T08:32:56;7.13;;;5.20;;
44110;SDS011;29774;52.664;5.074;2023-05-10T08:35:21;6.30;;;4.05;;
44110;SDS011;29774;52.664;5.074;2023-05-10T08:37:47;6.85;;;4.72;;
44110;SDS011;29774;52.664;5.074;2023-05-10T08:40:13;8.40;;;6.40;;
44110;SDS011;29774;52.664;5.074;2023-05-10T08:42:41;5.65;;;4.30;;
44110;SDS011;29774;52.664;5.074;2023-05-10T08:45:12;4.47;;;3.50;;
44110;SDS011;29774;52.664;5.074;2023-05-10T08:47:39;8.45;;;5.75;;
44110;SDS011;29774;52.664;5.074;2023-05-10T08:50:06;4.82;;;3.65;;
44110;SDS011;29774;52.664;5.074;2023-05-10T08:52:32;7.28;;;5.45;;
44110;SDS011;29774;52.664;5.074;2023-05-10T08:55:01;10.43;;;6.18;;
44110;SDS011;29774;52.664;5.074;2023-05-10T08:57:27;5.93;;;4.47;;
44110;SDS011;29774;52.664;5.074;2023-05-10T08:59:53;7.95;;;6.72;;
44110;SDS011;29774;52.664;5.074;2023-05-10T09:02:18;3.28;;;2.97;;
44110;SDS011;29774;52.664;5.074;2023-05-10T09:04:46;4.25;;;3.05;;
44110;SDS011;29774;52.664;5.074;2023-05-10T09:07:11;7.95;;;5.28;;
44110;SDS011;29774;52.664;5.074;2023-05-10T09:09:37;2.65;;;2.05;;
44110;SDS011;29774;52.664;5.074;2023-05-10T09:12:03;3.35;;;2.83;;
44110;SDS011;29774;52.664;5.074;2023-05-10T09:14:29;3.53;;;3.15;;
44110;SDS011;29774;52.664;5.074;2023-05-10T09:16:58;8.48;;;5.68;;
44110;SDS011;29774;52.664;5.074;2023-05-10T09:19:24;3.78;;;2.53;;
44110;SDS011;29774;52.664;5.074;2023-05-10T09:21:49;4.35;;;3.72;;
44110;SDS011;29774;52.664;5.074;2023-05-10T09:24:15;4.68;;;2.80;;
44110;SDS011;29774;52.664;5.074;2023-05-10T09:26:47;6.97;;;4.72;;
44110;SDS011;29774;52.664;5.074;2023-05-10T09:29:13;8.27;;;5.22;;
44110;SDS011;29774;52.664;5.074;2023-05-10T09:31:43;5.18;;;3.42;;
44110;SDS011;29774;52.664;5.074;2023-05-10T09:34:11;4.55;;;3.65;;
44110;SDS011;29774;52.664;5.074;2023-05-10T09:36:57;2.90;;;2.35;;
44110;SDS011;29774;52.664;5.074;2023-05-10T09:39:35;4.78;;;3.10;;
44110;SDS011;29774;52.664;5.074;2023-05-10T09:42:02;6.80;;;4.93;;
44110;SDS011;29774;52.664;5.074;2023-05-10T09:44:30;4.30;;;3.08;;
44110;SDS011;29774;52.664;5.074;2023-05-10T09:46:56;7.80;;;5.35;;
44110;SDS011;29774;52.664;5.074;2023-05-10T09:49:22;3.17;;;2.88;;
44110;SDS011;29774;52.664;5.074;2023-05-10T09:51:57;10.45;;;7.15;;
44110;SDS011;29774;52.664;5.074;2023-05-10T09:54:29;4.97;;;4.28;;
44110;SDS011;29774;52.664;5.074;2023-05-10T09:56:55;2.75;;;2.47;;
44110;SDS011;29774;52.664;5.074;2023-05-10T09:59:20;4.53;;;2.65;;
44110;SDS011;29774;52.664;5.074;2023-05-10T10:01:49;5.13;;;4.22;;
44110;SDS011;29774;52.664;5.074;2023-05-10T10:04:16;2.35;;;2.15;;
44110;SDS011;29774;52.664;5.074;2023-05-10T10:06:42;3.13;;;2.63;;
44110;SDS011;29774;52.664;5.074;2023-05-10T10:09:08;2.45;;;2.25;;
44110;SDS011;29774;52.664;5.074;2023-05-10T10:11:35;2.75;;;2.05;;
44110;SDS011;29774;52.664;5.074;2023-05-10T10:14:01;4.95;;;2.92;;
44110;SDS011;29774;52.664;5.074;2023-05-10T10:16:31;7.95;;;5.88;;
44110;SDS011;29774;52.664;5.074;2023-05-10T10:18:57;4.13;;;3.50;;
44110;SDS011;29774;52.664;5.074;2023-05-10T10:21:23;9.82;;;6.93;;
44110;SDS011;29774;52.664;5.074;2023-05-10T10:23:49;6.95;;;4.60;;
44110;SDS011;29774;52.664;5.074;2023-05-10T10:26:16;11.02;;;7.30;;
44110;SDS011;29774;52.664;5.074;2023-05-10T10:34:06;7.32;;;4.65;;
44110;SDS011;29774;52.664;5.074;2023-05-10T10:36:40;8.68;;;5.60;;
44110;SDS011;29774;52.664;5.074;2023-05-10T10:39:10;2.85;;;2.20;;
44110;SDS011;29774;52.664;5.074;2023-05-10T10:41:37;5.70;;;4.22;;
44110;SDS011;29774;52.664;5.074;2023-05-10T10:52:15;4.00;;;3.00;;
44110;SDS011;29774;52.664;5.074;2023-05-10T10:54:41;5.63;;;3.70;;
44110;SDS011;29774;52.664;5.074;2023-05-10T10:57:12;9.73;;;6.28;;
44110;SDS011;29774;52.664;5.074;2023-05-10T10:59:42;4.90;;;3.67;;
44110;SDS011;29774;52.664;5.074;2023-05-10T11:02:32;3.22;;;2.55;;
44110;SDS011;29774;52.664;5.074;2023-05-10T11:05:40;3.33;;;2.92;;
44110;SDS011;29774;52.664;5.074;2023-05-10T11:07:59;6.07;;;4.32;;
44110;SDS011;29774;52.664;5.074;2023-05-10T11:10:31;9.35;;;6.68;;
44110;SDS011;29774;52.664;5.074;2023-05-10T11:13:00;3.50;;;2.83;;
44110;SDS011;29774;52.664;5.074;2023-05-10T11:15:37;6.15;;;4.38;;
44110;SDS011;29774;52.664;5.074;2023-05-10T11:18:17;5.15;;;2.95;;
44110;SDS011;29774;52.664;5.074;2023-05-10T11:20:45;3.60;;;2.80;;
44110;SDS011;29774;52.664;5.074;2023-05-10T11:23:21;4.03;;;2.63;;
44110;SDS011;29774;52.664;5.074;2023-05-10T11:25:47;8.32;;;5.50;;
44110;SDS011;29774;52.664;5.074;2023-05-10T11:28:14;4.78;;;4.18;;
44110;SDS011;29774;52.664;5.074;2023-05-10T11:30:42;4.72;;;4.07;;
44110;SDS011;29774;52.664;5.074;2023-05-10T11:33:09;4.78;;;3.25;;
44110;SDS011;29774;52.664;5.074;2023-05-10T11:35:40;3.17;;;2.80;;
44110;SDS011;29774;52.664;5.074;2023-05-10T11:38:07;2.95;;;2.65;;
44110;SDS011;29774;52.664;5.074;2023-05-10T11:40:34;2.53;;;2.17;;
44110;SDS011;29774;52.664;5.074;2023-05-10T11:43:00;3.25;;;2.28;;
44110;SDS011;29774;52.664;5.074;2023-05-10T11:45:26;6.10;;;3.88;;
44110;SDS011;29774;52.664;5.074;2023-05-10T11:47:53;3.35;;;2.55;;
44110;SDS011;29774;52.664;5.074;2023-05-10T11:50:19;6.78;;;5.15;;
44110;SDS011;29774;52.664;5.074;2023-05-10T11:52:45;4.90;;;3.95;;
44110;SDS011;29774;52.664;5.074;2023-05-10T11:55:16;5.10;;;4.20;;
44110;SDS011;29774;52.664;5.074;2023-05-10T11:57:41;4.50;;;3.25;;
44110;SDS011;29774;52.664;5.074;2023-05-10T12:00:10;6.70;;;5.20;;
44110;SDS011;29774;52.664;5.074;2023-05-10T12:02:36;3.10;;;2.78;;
44110;SDS011;29774;52.664;5.074;2023-05-10T12:05:02;3.33;;;2.35;;
44110;SDS011;29774;52.664;5.074;2023-05-10T12:07:29;4.85;;;3.33;;
44110;SDS011;29774;52.664;5.074;2023-05-10T12:10:07;4.55;;;3.70;;
44110;SDS011;29774;52.664;5.074;2023-05-10T12:12:42;3.80;;;2.88;;
44110;SDS011;29774;52.664;5.074;2023-05-10T12:15:19;2.20;;;1.88;;
44110;SDS011;29774;52.664;5.074;2023-05-10T12:17:45;2.63;;;2.30;;
44110;SDS011;29774;52.664;5.074;2023-05-10T12:22:44;2.67;;;2.33;;
44110;SDS011;29774;52.664;5.074;2023-05-10T12:25:21;2.85;;;2.17;;
44110;SDS011;29774;52.664;5.074;2023-05-10T12:27:48;5.93;;;4.20;;
44110;SDS011;29774;52.664;5.074;2023-05-10T12:30:19;4.18;;;3.70;;
44110;SDS011;29774;52.664;5.074;2023-05-10T12:32:52;4.28;;;3.55;;
44110;SDS011;29774;52.664;5.074;2023-05-10T12:35:19;2.78;;;2.38;;
44110;SDS011;29774;52.664;5.074;2023-05-10T12:37:49;3.35;;;2.92;;
44110;SDS011;29774;52.664;5.074;2023-05-10T12:40:17;7.20;;;3.70;;
44110;SDS011;29774;52.664;5.074;2023-05-10T12:42:43;2.88;;;2.35;;
44110;SDS011;29774;52.664;5.074;2023-05-10T12:45:11;2.08;;;1.90;;
44110;SDS011;29774;52.664;5.074;2023-05-10T12:47:37;5.38;;;3.15;;
44110;SDS011;29774;52.664;5.074;2023-05-10T12:50:03;6.28;;;4.13;;
44110;SDS011;29774;52.664;5.074;2023-05-10T12:52:30;5.30;;;3.67;;
44110;SDS011;29774;52.664;5.074;2023-05-10T12:54:57;4.40;;;3.70;;
44110;SDS011;29774;52.664;5.074;2023-05-10T12:57:24;2.63;;;2.20;;
44110;SDS011;29774;52.664;5.074;2023-05-10T12:59:49;3.92;;;3.17;;
44110;SDS011;29774;52.664;5.074;2023-05-10T13:02:15;3.13;;;2.50;;
44110;SDS011;29774;52.664;5.074;2023-05-10T13:04:43;4.28;;;3.33;;
44110;SDS011;29774;52.664;5.074;2023-05-10T13:07:09;2.45;;;2.13;;
44110;SDS011;29774;52.664;5.074;2023-05-10T13:09:35;2.65;;;2.05;;
44110;SDS011;29774;52.664;5.074;2023-05-10T13:12:01;3.75;;;2.97;;
44110;SDS011;29774;52.664;5.074;2023-05-10T13:14:27;2.03;;;1.50;;
44110;SDS011;29774;52.664;5.074;2023-05-10T13:16:53;6.30;;;4.10;;
44110;SDS011;29774;52.664;5.074;2023-05-10T13:19:18;7.95;;;5.63;;
44110;SDS011;29774;52.664;5.074;2023-05-10T13:21:44;2.17;;;1.88;;
44110;SDS011;29774;52.664;5.074;2023-05-10T13:24:10;2.83;;;1.73;;
44110;SDS011;29774;52.664;5.074;2023-05-10T13:26:38;2.55;;;2.20;;
44110;SDS011;29774;52.664;5.074;2023-05-10T13:29:07;5.85;;;4.80;;
44110;SDS011;29774;52.664;5.074;2023-05-10T13:31:33;2.92;;;2.20;;
44110;SDS011;29774;52.664;5.074;2023-05-10T13:33:59;4.55;;;3.65;;
44110;SDS011;29774;52.664;5.074;2023-05-10T13:36:25;2.30;;;2.10;;
44110;SDS011;29774;52.664;5.074;2023-05-10T13:38:51;2.88;;;2.20;;
44110;SDS011;29774;52.664;5.074;2023-05-10T13:41:17;3.80;;;3.00;;
44110;SDS011;29774;52.664;5.074;2023-05-10T13:43:42;4.70;;;3.55;;
44110;SDS011;29774;52.664;5.074;2023-05-10T13:46:08;2.85;;;2.50;;
44110;SDS011;29774;52.664;5.074;2023-05-10T13:48:34;2.22;;;1.98;;
44110;SDS011;29774;52.664;5.074;2023-05-10T13:51:01;6.78;;;4.60;;
44110;SDS011;29774;52.664;5.074;2023-05-10T13:53:27;2.92;;;2.40;;
44110;SDS011;29774;52.664;5.074;2023-05-10T13:55:53;2.30;;;2.00;;
44110;SDS011;29774;52.664;5.074;2023-05-10T13:58:18;2.58;;;2.10;;
44110;SDS011;29774;52.664;5.074;2023-05-10T14:00:44;2.40;;;2.20;;
44110;SDS011;29774;52.664;5.074;2023-05-10T14:03:10;2.95;;;2.22;;
44110;SDS011;29774;52.664;5.074;2023-05-10T14:05:35;2.38;;;1.92;;
44110;SDS011;29774;52.664;5.074;2023-05-10T14:08:01;5.18;;;4.28;;
44110;SDS011;29774;52.664;5.074;2023-05-10T14:10:27;5.35;;;3.28;;
44110;SDS011;29774;52.664;5.074;2023-05-10T14:12:53;3.05;;;2.63;;
44110;SDS011;29774;52.664;5.074;2023-05-10T14:15:18;2.35;;;2.00;;
44110;SDS011;29774;52.664;5.074;2023-05-10T14:17:44;8.23;;;4.57;;
44110;SDS011;29774;52.664;5.074;2023-05-10T14:20:10;3.03;;;2.72;;
44110;SDS011;29774;52.664;5.074;2023-05-10T14:22:36;4.38;;;3.00;;
44110;SDS011;29774;52.664;5.074;2023-05-10T14:25:01;3.92;;;2.90;;
44110;SDS011;29774;52.664;5.074;2023-05-10T14:27:27;4.63;;;3.13;;
44110;SDS011;29774;52.664;5.074;2023-05-10T14:29:53;3.65;;;2.05;;
44110;SDS011;29774;52.664;5.074;2023-05-10T14:32:19;4.53;;;3.70;;
44110;SDS011;29774;52.664;5.074;2023-05-10T14:34:44;3.97;;;3.33;;
44110;SDS011;29774;52.664;5.074;2023-05-10T14:37:10;4.97;;;3.95;;
44110;SDS011;29774;52.664;5.074;2023-05-10T14:39:36;2.20;;;1.85;;
44110;SDS011;29774;52.664;5.074;2023-05-10T14:42:02;3.25;;;2.85;;
44110;SDS011;29774;52.664;5.074;2023-05-10T14:44:28;4.57;;;2.95;;
44110;SDS011;29774;52.664;5.074;2023-05-10T14:46:54;2.47;;;2.00;;
44110;SDS011;29774;52.664;5.074;2023-05-10T14:49:20;3.15;;;2.30;;
44110;SDS011;29774;52.664;5.074;2023-05-10T14:51:47;2.88;;;2.33;;
44110;SDS011;29774;52.664;5.074;2023-05-10T14:54:13;3.95;;;2.60;;
44110;SDS011;29774;52.664;5.074;2023-05-10T14:56:39;3.03;;;2.38;;
44110;SDS011;29774;52.664;5.074;2023-05-10T14:59:06;2.75;;;2.17;;
44110;SDS011;29774;52.664;5.074;2023-05-10T15:01:32;3.28;;;2.88;;
44110;SDS011;29774;52.664;5.074;2023-05-10T15:03:59;2.97;;;2.28;;
44110;SDS011;29774;52.664;5.074;2023-05-10T15:06:30;3.72;;;2.53;;
44110;SDS011;29774;52.664;5.074;2023-05-10T15:08:57;1.55;;;1.45;;
44110;SDS011;29774;52.664;5.074;2023-05-10T15:11:22;3.15;;;1.98;;
44110;SDS011;29774;52.664;5.074;2023-05-10T15:13:48;2.08;;;1.80;;
44110;SDS011;29774;52.664;5.074;2023-05-10T15:16:13;2.40;;;1.73;;
44110;SDS011;29774;52.664;5.074;2023-05-10T15:18:39;3.92;;;2.63;;
44110;SDS011;29774;52.664;5.074;2023-05-10T15:21:05;3.30;;;2.42;;
44110;SDS011;29774;52.664;5.074;2023-05-10T15:23:30;4.18;;;3.00;;